Molly Pitcher — WDI3781 — position and weather

sailwx.info

Track history (hours):
 
Tides and Currents Weather Stations Pressure Air Temp Water Temp Dewpoint Dewpoint Depression Visibility Wind Speed Wind Dir Waves Ship Positions

Molly Pitcher

Owner: Port Imperial Ferry Corp, Weehawken, NJ. More information available from US FCC via Universal Licensing System and Coast Guard Vessel Documentation Center.

Last reported at 2018-Jan-19 22:53 UTC. Time now 2018-Jan-21 08:45 UTC.
Position N 40°33' W 074°04'.

Length 33 m; draft 2 m.

Type: Passenger vessel. MMSI: 367691840.

Date/timePositionNaut miles runAvg speedWind from/ knotsBaromVisibWave heightAir tempDewpointWater temp
2018-Jan-19 22:53N 40°33' W 074°04'1026.1
2018-Jan-19 22:30N 40°42' W 074°00'3 6.5
2018-Jan-19 22:00N 40°39' W 074°02'8 9.4
2018-Jan-19 21:10N 40°31' W 074°04'529.3
2018-Jan-19 21:00N 40°36' W 074°03'714.0
2018-Jan-19 20:30N 40°43' W 074°01'3 5.7
2018-Jan-19 20:00N 40°46' W 074°00'0 0.1
2018-Jan-19 15:35N 40°46' W 074°01'0 4.8
2018-Jan-19 15:30N 40°46' W 074°00'815.5
2018-Jan-19 15:00N 40°38' W 074°03'4 4.2
2018-Jan-19 14:06N 40°34' W 074°04'327.2
2018-Jan-19 14:00N 40°37' W 074°03'714.7
2018-Jan-19 13:30N 40°44' W 074°01'611.6
2018-Jan-19 13:00N 40°38' W 074°02'7 7.7
2018-Jan-19 12:09N 40°32' W 074°04'427.9
2018-Jan-19 12:00N 40°36' W 074°03'713.3
2018-Jan-19 11:30N 40°42' W 074°01'9 0.7
2018-Jan-18 22:52N 40°33' W 074°04'925.4
2018-Jan-18 22:30N 40°42' W 074°00'3 5.7
2018-Jan-18 22:01N 40°39' W 074°02'5 5.8
2018-Jan-18 21:03N 40°34' W 074°04'229.3
2018-Jan-18 21:00N 40°36' W 074°03'714.6
2018-Jan-18 20:30N 40°43' W 074°01'3 5.4
2018-Jan-18 19:59N 40°46' W 074°00'0 0.0
2018-Jan-18 14:17N 40°46' W 074°00'310.7
2018-Jan-18 14:01N 40°43' W 074°01'917.0
2018-Jan-18 13:28N 40°34' W 074°04'2 1.8
2018-Jan-18 12:38N 40°36' W 074°03'327.5
2018-Jan-18 12:31N 40°39' W 074°03'4 7.6
2018-Jan-18 12:00N 40°42' W 074°00'  
2018-Jan-12 14:48N 40°46' W 074°01'2 8.5
2018-Jan-12 14:31N 40°44' W 074°01'3 5.6
2018-Jan-12 14:01N 40°41' W 074°01'5 4.4
2018-Jan-12 12:47N 40°36' W 074°03'724.3
2018-Jan-12 12:31N 40°42' W 074°02'0 0.5
2018-Jan-12 12:01N 40°42' W 074°01'6 0.5
2018-Jan-11 23:52N 40°36' W 074°03'617.7
2018-Jan-11 23:30N 40°42' W 074°00'1 2.0
2018-Jan-11 23:00N 40°43' W 074°01'5 3.8
2018-Jan-11 21:42N 40°38' W 074°03'420.9
2018-Jan-11 21:29N 40°42' W 074°00'3 1.8
2018-Jan-11 19:35N 40°46' W 074°00'1 0.1
2018-Jan-11 14:31N 40°46' W 074°01'0 5.2
2018-Jan-11 14:27N 40°46' W 074°01'4 7.7
2018-Jan-11 13:58N 40°42' W 074°00'5 3.3
2018-Jan-11 12:23N 40°37' W 074°03'614.7
2018-Jan-11 12:01N 40°43' W 074°01'7 0.5
2018-Jan-10 21:47N 40°36' W 074°03'622.8
2018-Jan-10 21:30N 40°42' W 074°00'4 3.6
2018-Jan-10 20:32N 40°46' W 074°00'0 6.4
2018-Jan-10 20:30N 40°46' W 074°01'0 0.0
2018-Jan-10 14:33N 40°46' W 074°01'0 2.2
2018-Jan-10 14:25N 40°46' W 074°00'3 7.2
2018-Jan-10 13:56N 40°42' W 074°00'  
Track history (hours):
 
Tides and Currents Weather Stations Pressure Air Temp Water Temp Dewpoint Dewpoint Depression Visibility Wind Speed Wind Dir Waves Ship Positions

Molly Pitcher

Owner: Port Imperial Ferry Corp, Weehawken, NJ. More information available from US FCC via Universal Licensing System and Coast Guard Vessel Documentation Center.

Last reported at 2018-Jan-19 22:53 UTC. Time now 2018-Jan-21 08:45 UTC.
Position N 40°33' W 074°04'.

Length 33 m; draft 2 m.

Type: Passenger vessel. MMSI: 367691840.

Date/timePositionNaut miles runAvg speedWind from/ knotsBaromVisibWave heightAir tempDewpointWater temp
2018-Jan-19 22:53N 40°33' W 074°04'1026.1
2018-Jan-19 22:30N 40°42' W 074°00'3 6.5
2018-Jan-19 22:00N 40°39' W 074°02'8 9.4
2018-Jan-19 21:10N 40°31' W 074°04'529.3
2018-Jan-19 21:00N 40°36' W 074°03'714.0
2018-Jan-19 20:30N 40°43' W 074°01'3 5.7
2018-Jan-19 20:00N 40°46' W 074°00'0 0.1
2018-Jan-19 15:35N 40°46' W 074°01'0 4.8
2018-Jan-19 15:30N 40°46' W 074°00'815.5
2018-Jan-19 15:00N 40°38' W 074°03'4 4.2
2018-Jan-19 14:06N 40°34' W 074°04'327.2
2018-Jan-19 14:00N 40°37' W 074°03'714.7
2018-Jan-19 13:30N 40°44' W 074°01'611.6
2018-Jan-19 13:00N 40°38' W 074°02'7 7.7
2018-Jan-19 12:09N 40°32' W 074°04'427.9
2018-Jan-19 12:00N 40°36' W 074°03'713.3
2018-Jan-19 11:30N 40°42' W 074°01'9 0.7
2018-Jan-18 22:52N 40°33' W 074°04'925.4
2018-Jan-18 22:30N 40°42' W 074°00'3 5.7
2018-Jan-18 22:01N 40°39' W 074°02'5 5.8
2018-Jan-18 21:03N 40°34' W 074°04'229.3
2018-Jan-18 21:00N 40°36' W 074°03'714.6
2018-Jan-18 20:30N 40°43' W 074°01'3 5.4
2018-Jan-18 19:59N 40°46' W 074°00'0 0.0
2018-Jan-18 14:17N 40°46' W 074°00'310.7
2018-Jan-18 14:01N 40°43' W 074°01'917.0
2018-Jan-18 13:28N 40°34' W 074°04'2 1.8
2018-Jan-18 12:38N 40°36' W 074°03'327.5
2018-Jan-18 12:31N 40°39' W 074°03'4 7.6
2018-Jan-18 12:00N 40°42' W 074°00'  
2018-Jan-12 14:48N 40°46' W 074°01'2 8.5
2018-Jan-12 14:31N 40°44' W 074°01'3 5.6
2018-Jan-12 14:01N 40°41' W 074°01'5 4.4
2018-Jan-12 12:47N 40°36' W 074°03'724.3
2018-Jan-12 12:31N 40°42' W 074°02'0 0.5
2018-Jan-12 12:01N 40°42' W 074°01'6 0.5
2018-Jan-11 23:52N 40°36' W 074°03'617.7
2018-Jan-11 23:30N 40°42' W 074°00'1 2.0
2018-Jan-11 23:00N 40°43' W 074°01'5 3.8
2018-Jan-11 21:42N 40°38' W 074°03'420.9
2018-Jan-11 21:29N 40°42' W 074°00'3 1.8
2018-Jan-11 19:35N 40°46' W 074°00'1 0.1
2018-Jan-11 14:31N 40°46' W 074°01'0 5.2
2018-Jan-11 14:27N 40°46' W 074°01'4 7.7
2018-Jan-11 13:58N 40°42' W 074°00'5 3.3
2018-Jan-11 12:23N 40°37' W 074°03'614.7
2018-Jan-11 12:01N 40°43' W 074°01'7 0.5
2018-Jan-10 21:47N 40°36' W 074°03'622.8
2018-Jan-10 21:30N 40°42' W 074°00'4 3.6
2018-Jan-10 20:32N 40°46' W 074°00'0 6.4
2018-Jan-10 20:30N 40°46' W 074°01'0 0.0
2018-Jan-10 14:33N 40°46' W 074°01'0 2.2
2018-Jan-10 14:25N 40°46' W 074°00'3 7.2
2018-Jan-10 13:56N 40°42' W 074°00'  

Dump ship's entire track history